Time;durP1;ratioP1;P1;durP2;ratioP2;P2;SDS_P1;SDS_P2;PMS_P1;PMS_P2;Temp;Humidity;BMP_temperature;BMP_pressure;BME280_temperature;BME280_humidity;BME280_pressure;Samples;Min_cycle;Max_cycle;Signal;HPM_P1;HPM_P2
2024/02/23 00:00:11;;;;;;;9.93;5.73;;;;;;;2.67;82.40;98992.50;5054224;28;20453;-72
2024/02/23 00:02:39;;;;;;;10.30;4.40;;;;;;;2.66;82.03;98990.81;5054397;28;20445;-71
2024/02/23 00:05:06;;;;;;;6.90;3.87;;;;;;;2.66;82.20;98983.06;5054168;28;20443;-71
2024/02/23 00:07:33;;;;;;;12.60;7.43;;;;;;;2.66;82.44;98990.81;5054784;28;20942;-71
2024/02/23 00:10:00;;;;;;;15.87;7.07;;;;;;;2.65;82.44;98976.22;5053213;28;20467;-72
2024/02/23 00:12:27;;;;;;;10.67;5.83;;;;;;;2.64;82.39;98980.50;5054003;28;20441;-71
2024/02/23 00:14:54;;;;;;;11.33;7.13;;;;;;;2.64;82.39;98974.50;5054336;28;20542;-71
2024/02/23 00:17:21;;;;;;;10.53;5.73;;;;;;;2.63;82.45;98976.25;5053950;28;20495;-71
2024/02/23 00:19:52;;;;;;;10.47;4.90;;;;;;;2.63;82.29;98960.75;5053980;28;20436;-71
2024/02/23 00:22:19;;;;;;;9.70;5.47;;;;;;;2.63;82.49;98958.16;5053920;28;20825;-70
2024/02/23 00:24:46;;;;;;;14.20;7.23;;;;;;;2.63;82.60;98953.00;5054040;28;20935;-71
2024/02/23 00:27:13;;;;;;;13.77;6.47;;;;;;;2.64;82.47;98956.44;5053810;28;20449;-71
2024/02/23 00:29:40;;;;;;;10.60;5.07;;;;;;;2.63;82.79;98937.50;5054054;28;20451;-74
2024/02/23 00:32:07;;;;;;;15.30;8.63;;;;;;;2.64;82.60;98940.94;5054013;28;20531;-74
2024/02/23 00:34:34;;;;;;;13.40;6.87;;;;;;;2.65;82.60;98942.66;5054034;28;20853;-74
2024/02/23 00:37:03;;;;;;;4.63;3.23;;;;;;;2.65;82.48;98934.91;5053991;28;21033;-74
2024/02/23 00:39:31;;;;;;;12.93;6.63;;;;;;;2.63;82.58;98924.59;5054000;28;20865;-74
2024/02/23 00:41:58;;;;;;;12.83;7.23;;;;;;;2.64;82.77;98925.44;5053887;28;20463;-74
2024/02/23 00:44:25;;;;;;;10.90;6.90;;;;;;;2.62;82.96;98912.59;5053951;28;20440;-74
2024/02/23 00:46:51;;;;;;;15.27;7.30;;;;;;;2.62;82.50;98912.59;5054049;28;20458;-74
2024/02/23 00:49:18;;;;;;;7.63;4.23;;;;;;;2.63;82.69;98909.09;5053779;28;20446;-75
2024/02/23 00:51:45;;;;;;;16.37;8.50;;;;;;;2.60;82.50;98899.69;5053688;28;20528;-74
2024/02/23 00:54:14;;;;;;;11.53;5.80;;;;;;;2.60;82.62;98888.53;5053271;28;20437;-74
2024/02/23 00:56:40;;;;;;;11.43;6.33;;;;;;;2.63;82.80;98893.63;5053531;28;20491;-74
2024/02/23 00:59:07;;;;;;;18.43;9.40;;;;;;;2.62;82.92;98881.59;5053624;28;20465;-79
2024/02/23 01:01:34;;;;;;;9.97;5.47;;;;;;;2.62;82.88;98881.59;5053295;28;20448;-79
2024/02/23 01:04:01;;;;;;;15.80;8.47;;;;;;;2.60;82.92;98873.88;5053320;28;20525;-79
2024/02/23 01:06:28;;;;;;;17.90;8.83;;;;;;;2.58;83.16;98864.47;5053477;28;20439;-78
2024/02/23 01:08:55;;;;;;;10.97;6.10;;;;;;;2.60;82.99;98873.03;5053260;28;20482;-78
2024/02/23 01:11:23;;;;;;;14.60;7.27;;;;;;;2.60;83.31;98862.69;5053213;28;20431;-79
2024/02/23 01:13:50;;;;;;;11.23;5.43;;;;;;;2.59;83.23;98867.03;5053382;28;20439;-78
2024/02/23 01:16:17;;;;;;;12.83;8.20;;;;;;;2.58;83.23;98854.97;5053125;28;20476;-78
2024/02/23 01:18:44;;;;;;;20.00;9.20;;;;;;;2.58;83.40;98848.97;5053035;28;20446;-78
2024/02/23 01:21:11;;;;;;;14.63;7.47;;;;;;;2.57;83.25;98842.13;5052662;28;20929;-80
2024/02/23 01:23:38;;;;;;;18.47;9.83;;;;;;;2.59;83.38;98842.94;5052991;28;20444;-79
2024/02/23 01:26:05;;;;;;;16.97;9.10;;;;;;;2.59;83.36;98840.34;5052847;28;20451;-79
2024/02/23 01:28:33;;;;;;;17.23;11.07;;;;;;;2.59;83.53;98828.28;5053083;28;20445;-79
2024/02/23 01:31:00;;;;;;;10.83;6.03;;;;;;;2.57;83.51;98818.88;5053347;28;20960;-79
2024/02/23 01:33:27;;;;;;;16.93;9.53;;;;;;;2.59;83.49;98819.69;5053101;28;20448;-79
2024/02/23 01:35:54;;;;;;;11.47;6.43;;;;;;;2.60;83.50;98821.41;5052897;28;20466;-79
2024/02/23 01:38:22;;;;;;;19.90;10.17;;;;;;;2.58;83.75;98815.41;5052795;28;20496;-79
2024/02/23 01:40:49;;;;;;;14.33;9.97;;;;;;;2.59;84.03;98810.22;5052649;28;20449;-69
2024/02/23 01:43:15;;;;;;;13.77;7.67;;;;;;;2.60;83.63;98800.75;5052227;28;20439;-69
2024/02/23 01:45:44;;;;;;;16.37;8.90;;;;;;;2.61;83.66;98794.69;5052615;28;20443;-69
2024/02/23 01:48:11;;;;;;;14.10;9.67;;;;;;;2.60;83.96;98791.25;5052466;28;20447;-69
2024/02/23 01:50:39;;;;;;;12.90;5.93;;;;;;;2.62;83.75;98791.25;5052737;28;20433;-69
2024/02/23 01:53:06;;;;;;;18.93;10.03;;;;;;;2.61;83.83;98779.19;5052448;28;20811;-69
2024/02/23 01:55:33;;;;;;;17.73;11.73;;;;;;;2.61;83.92;98774.03;5052307;28;20464;-69
2024/02/23 01:58:01;;;;;;;19.57;11.37;;;;;;;2.60;84.23;98770.59;5052313;28;20994;-69
2024/02/23 02:00:30;;;;;;;18.87;10.00;;;;;;;2.59;84.47;98768.91;5052513;28;20440;-68
2024/02/23 02:02:58;;;;;;;21.03;9.73;;;;;;;2.60;84.32;98774.91;5052339;28;20441;-69
2024/02/23 02:05:25;;;;;;;17.93;9.23;;;;;;;2.57;84.34;98760.34;5052535;28;20444;-69
2024/02/23 02:07:58;;;;;;;17.77;10.37;;;;;;;2.60;84.21;98762.00;5052292;28;20459;-69
2024/02/23 02:10:26;;;;;;;16.50;8.20;;;;;;;2.60;84.27;98754.28;5052244;28;20942;-73
2024/02/23 02:12:52;;;;;;;23.07;13.93;;;;;;;2.61;84.42;98750.78;5052254;28;20939;-73
2024/02/23 02:15:21;;;;;;;23.50;12.47;;;;;;;2.59;84.51;98748.25;5052271;28;20441;-73
2024/02/23 02:17:48;;;;;;;25.93;14.80;;;;;;;2.57;84.89;98736.28;5052128;28;20482;-73
2024/02/23 02:20:24;;;;;;;12.90;6.87;;;;;;;2.57;84.62;98729.38;5052593;28;20813;-74
2024/02/23 02:22:51;;;;;;;20.07;10.43;;;;;;;2.57;85.06;98724.19;5052385;28;20439;-74
2024/02/23 02:25:19;;;;;;;15.20;8.07;;;;;;;2.56;84.97;98713.94;5052086;28;20972;-74
2024/02/23 02:27:46;;;;;;;23.27;14.33;;;;;;;2.55;84.87;98722.53;5052168;28;20447;-74
2024/02/23 02:30:13;;;;;;;21.37;13.43;;;;;;;2.55;84.86;98725.13;5052349;28;20441;-74
2024/02/23 02:32:40;;;;;;;22.30;12.03;;;;;;;2.56;85.02;98721.69;5053290;28;20443;-73
2024/02/23 02:35:08;;;;;;;22.23;11.93;;;;;;;2.56;84.98;98726.84;5055983;28;20806;-73
2024/02/23 02:37:37;;;;;;;10.70;6.20;;;;;;;2.56;84.80;98711.34;5056237;28;20912;-73
2024/02/23 02:40:04;;;;;;;18.23;11.13;;;;;;;2.57;84.77;98716.47;5056182;28;20444;-73
2024/02/23 02:42:31;;;;;;;17.27;8.67;;;;;;;2.58;84.84;98705.25;5055825;28;20443;-74
2024/02/23 02:44:58;;;;;;;14.60;9.13;;;;;;;2.60;84.84;98712.97;5055799;28;20445;-73
2024/02/23 02:47:25;;;;;;;16.43;8.23;;;;;;;2.60;84.77;98698.31;5055814;28;20436;-74
2024/02/23 02:49:52;;;;;;;15.43;8.83;;;;;;;2.62;84.79;98700.03;5056030;28;20446;-74
2024/02/23 02:52:21;;;;;;;14.53;7.53;;;;;;;2.59;84.77;98691.47;5056144;28;20438;-75
2024/02/23 02:54:49;;;;;;;8.17;5.03;;;;;;;2.65;84.79;98681.88;5055695;28;20485;-74
2024/02/23 02:57:16;;;;;;;21.33;12.87;;;;;;;2.63;84.77;98673.31;5055964;28;20840;-74
2024/02/23 02:59:44;;;;;;;19.87;12.00;;;;;;;2.66;85.02;98668.91;5055921;28;20435;-75
2024/02/23 03:02:11;;;;;;;19.90;11.80;;;;;;;2.66;84.90;98661.19;5055708;28;20498;-74
2024/02/23 03:04:38;;;;;;;13.63;7.23;;;;;;;2.66;85.08;98655.16;5055806;28;20476;-74
2024/02/23 03:07:05;;;;;;;19.23;12.73;;;;;;;2.67;84.88;98657.72;5055599;28;20463;-74
2024/02/23 03:09:32;;;;;;;17.97;9.83;;;;;;;2.63;84.88;98650.94;5052125;28;20777;-74
2024/02/23 03:12:00;;;;;;;6.40;4.27;;;;;;;2.67;84.80;98647.41;5035875;28;20807;-74
2024/02/23 03:14:27;;;;;;;14.03;10.03;;;;;;;2.70;84.79;98644.75;5035743;28;20444;-74
2024/02/23 03:16:54;;;;;;;6.23;4.30;;;;;;;2.70;84.77;98637.00;5035678;28;20495;-75
2024/02/23 03:19:23;;;;;;;18.47;11.30;;;;;;;2.71;85.00;98630.09;5035632;28;20463;-70
2024/02/23 03:21:50;;;;;;;18.97;9.90;;;;;;;2.71;85.29;98623.19;5035233;28;20450;-69
2024/02/23 03:24:17;;;;;;;17.13;9.40;;;;;;;2.73;85.12;98620.53;5035155;28;20444;-70
2024/02/23 03:26:44;;;;;;;19.90;11.03;;;;;;;2.73;85.25;98611.09;5035024;28;20454;-69
2024/02/23 03:29:12;;;;;;;21.87;12.67;;;;;;;2.74;85.22;98609.34;5035051;28;20447;-70
2024/02/23 03:31:39;;;;;;;15.67;10.97;;;;;;;2.74;85.38;98606.78;5035196;28;20818;-70
2024/02/23 03:34:06;;;;;;;8.10;5.03;;;;;;;2.76;85.12;98589.50;5034930;28;20936;-70
2024/02/23 03:36:33;;;;;;;17.53;11.53;;;;;;;2.71;85.13;98584.47;5034891;28;20434;-70
2024/02/23 03:38:59;;;;;;;10.17;6.97;;;;;;;2.76;85.39;98582.59;5035157;28;20478;-69
2024/02/23 03:41:26;;;;;;;15.23;8.83;;;;;;;2.77;85.22;98575.69;5034739;28;20451;-70
2024/02/23 03:43:53;;;;;;;12.43;7.23;;;;;;;2.76;85.24;98572.28;5048028;28;20445;-70
2024/02/23 03:46:21;;;;;;;11.63;6.50;;;;;;;2.77;85.10;98573.13;5054844;28;20446;-69
2024/02/23 03:48:48;;;;;;;15.27;8.80;;;;;;;2.77;85.04;98566.22;5054703;28;20449;-70
2024/02/23 03:51:16;;;;;;;23.93;12.03;;;;;;;2.72;85.34;98568.06;5054540;28;20452;-70
2024/02/23 03:53:43;;;;;;;18.90;11.17;;;;;;;2.77;85.59;98571.38;5054793;28;20474;-69
2024/02/23 03:56:10;;;;;;;18.17;9.90;;;;;;;2.77;85.59;98576.53;5054618;28;20467;-70
2024/02/23 03:58:37;;;;;;;24.70;13.87;;;;;;;2.80;85.43;98573.03;5054292;28;20480;-70
2024/02/23 04:01:04;;;;;;;18.47;10.53;;;;;;;2.79;85.49;98569.63;5054860;28;20438;-75
2024/02/23 04:03:32;;;;;;;17.37;10.33;;;;;;;2.80;85.47;98570.47;5054612;28;20526;-74
2024/02/23 04:05:59;;;;;;;17.07;8.47;;;;;;;2.80;85.33;98557.53;5054586;28;20445;-75
2024/02/23 04:08:26;;;;;;;21.93;12.53;;;;;;;2.81;85.58;98562.69;5054496;28;20456;-74
2024/02/23 04:10:53;;;;;;;18.80;9.27;;;;;;;2.81;85.51;98557.53;5054439;28;20453;-75
2024/02/23 04:13:21;;;;;;;18.77;10.70;;;;;;;2.81;85.45;98557.53;5054641;28;20442;-74
2024/02/23 04:15:48;;;;;;;25.37;12.83;;;;;;;2.82;85.69;98551.44;5054318;28;20445;-74
2024/02/23 04:18:15;;;;;;;18.90;9.67;;;;;;;2.83;85.51;98547.13;5054509;28;20484;-75
2024/02/23 04:20:43;;;;;;;17.50;7.97;;;;;;;2.81;85.74;98539.44;5054173;28;20441;-75
2024/02/23 04:23:10;;;;;;;21.80;10.57;;;;;;;2.83;85.73;98547.97;5054402;28;20532;-74
2024/02/23 04:25:37;;;;;;;15.57;7.43;;;;;;;2.85;85.43;98547.09;5054467;28;20521;-75
2024/02/23 04:28:04;;;;;;;16.50;9.23;;;;;;;2.85;85.74;98542.78;5054239;28;20442;-74
2024/02/23 04:30:31;;;;;;;21.43;11.80;;;;;;;2.86;85.84;98538.47;5054008;28;20444;-71
2024/02/23 04:32:58;;;;;;;16.13;9.53;;;;;;;2.88;85.79;98544.44;5054053;28;20987;-71
2024/02/23 04:35:25;;;;;;;17.97;10.73;;;;;;;2.87;85.66;98528.09;5053680;28;20952;-71
2024/02/23 04:37:54;;;;;;;18.97;9.67;;;;;;;2.88;85.64;98523.78;5053855;28;20482;-71
2024/02/23 04:40:21;;;;;;;14.53;7.70;;;;;;;2.88;85.73;98532.38;5053666;28;20439;-69
2024/02/23 04:42:48;;;;;;;14.07;7.23;;;;;;;2.89;85.78;98518.53;5053642;28;20812;-71
2024/02/23 04:45:15;;;;;;;5.77;3.60;;;;;;;2.91;85.58;98513.34;5053874;28;20434;-71
2024/02/23 04:47:42;;;;;;;15.13;9.30;;;;;;;2.92;85.58;98512.47;5053561;28;20441;-71
2024/02/23 04:50:09;;;;;;;11.93;6.90;;;;;;;2.93;85.42;98509.00;5053415;28;20945;-71
2024/02/23 04:52:36;;;;;;;5.57;3.70;;;;;;;2.93;85.42;98509.84;5053519;28;20497;-71
2024/02/23 04:55:05;;;;;;;2.30;1.87;;;;;;;2.96;85.52;98508.91;5052650;28;20572;-71
2024/02/23 04:57:32;;;;;;;10.47;6.83;;;;;;;2.96;85.47;98503.75;5053403;28;20481;-70
2024/02/23 04:59:59;;;;;;;5.77;3.07;;;;;;;2.97;85.73;98487.34;5053303;28;20445;-71
2024/02/23 05:02:29;;;;;;;10.97;7.87;;;;;;;2.98;85.55;98491.63;5053149;28;20442;-71
2024/02/23 05:04:57;;;;;;;10.73;5.83;;;;;;;2.99;85.80;98493.34;5053087;28;20834;-71
2024/02/23 05:07:24;;;;;;;9.47;6.10;;;;;;;3.00;85.70;98495.00;5053103;28;20553;-71
2024/02/23 05:09:51;;;;;;;2.70;1.73;;;;;;;3.00;85.71;98484.69;5053471;28;20836;-74
2024/02/23 05:12:19;;;;;;;7.77;5.27;;;;;;;2.99;85.89;98486.41;5053592;28;20437;-75
2024/02/23 05:14:46;;;;;;;6.57;3.77;;;;;;;3.02;85.64;98473.41;5053384;28;20453;-74
2024/02/23 05:17:13;;;;;;;4.80;3.07;;;;;;;3.02;85.62;98478.56;5053096;28;20442;-75
2024/02/23 05:19:39;;;;;;;8.00;5.03;;;;;;;3.04;85.46;98476.81;5053234;28;20844;-75
2024/02/23 05:22:06;;;;;;;8.13;4.83;;;;;;;3.05;85.48;98467.31;5053302;28;21279;-74
2024/02/23 05:24:33;;;;;;;10.70;6.80;;;;;;;3.06;85.59;98469.00;5053100;28;20440;-74
2024/02/23 05:27:02;;;;;;;8.43;4.97;;;;;;;3.04;85.64;98455.28;5053185;28;20440;-73
2024/02/23 05:29:30;;;;;;;6.63;4.03;;;;;;;3.05;85.50;98456.97;5052939;28;20452;-75
2024/02/23 05:31:57;;;;;;;12.53;8.00;;;;;;;3.08;85.52;98463.81;5053172;28;20437;-74
2024/02/23 05:34:24;;;;;;;10.60;6.73;;;;;;;3.04;85.42;98456.16;5053110;28;20441;-75
2024/02/23 05:36:51;;;;;;;12.20;6.63;;;;;;;3.04;85.74;98450.09;5052986;28;20438;-75
2024/02/23 05:39:18;;;;;;;9.87;5.73;;;;;;;3.05;85.67;98447.50;5052821;28;20486;-74
2024/02/23 05:41:45;;;;;;;4.90;3.03;;;;;;;3.08;85.48;98436.22;5053126;28;20439;-76
2024/02/23 05:44:13;;;;;;;10.80;6.93;;;;;;;3.10;85.59;98428.41;5052740;28;20436;-75
2024/02/23 05:46:43;;;;;;;10.47;6.03;;;;;;;3.10;85.64;98431.88;5052682;28;20455;-75
2024/02/23 05:49:10;;;;;;;11.07;7.07;;;;;;;3.02;85.60;98410.56;5052872;28;20487;-75
2024/02/23 05:51:37;;;;;;;10.67;5.67;;;;;;;3.10;85.36;98429.28;5052935;28;20443;-75
2024/02/23 05:54:04;;;;;;;9.80;5.03;;;;;;;3.12;85.63;98435.22;5052732;28;20455;-76
2024/02/23 05:56:31;;;;;;;9.77;5.93;;;;;;;3.13;85.60;98415.44;5052510;28;20505;-76
2024/02/23 05:58:58;;;;;;;15.27;7.57;;;;;;;3.13;85.65;98418.84;5052331;28;20480;-76
2024/02/23 06:01:25;;;;;;;10.53;6.70;;;;;;;3.14;85.47;98415.38;5052464;28;20443;-75
2024/02/23 06:03:54;;;;;;;9.17;5.53;;;;;;;3.15;85.57;98411.03;5052395;28;20444;-75
2024/02/23 06:06:21;;;;;;;14.40;9.30;;;;;;;3.09;85.33;98401.72;5052575;28;20448;-75
2024/02/23 06:08:49;;;;;;;9.30;5.53;;;;;;;3.14;85.49;98412.78;5055379;28;20954;-76
2024/02/23 06:11:16;;;;;;;4.87;3.10;;;;;;;3.15;85.63;98414.47;5056801;28;20863;-76
2024/02/23 06:13:43;;;;;;;3.67;2.43;;;;;;;3.16;85.63;98412.75;5056407;28;20494;-75
2024/02/23 06:16:13;;;;;;;13.10;7.80;;;;;;;3.15;85.72;98409.28;5056430;28;20444;-76
2024/02/23 06:18:41;;;;;;;12.67;6.90;;;;;;;3.16;85.38;98407.59;5028905;28;20475;-74
2024/02/23 06:21:14;;;;;;;14.37;7.83;;;;;;;3.17;85.45;98399.75;5055678;28;20947;-73
2024/02/23 06:23:42;;;;;;;11.07;6.43;;;;;;;3.18;85.42;98398.88;5056313;28;20858;-73
2024/02/23 06:26:09;;;;;;;12.30;6.57;;;;;;;3.18;85.49;98404.03;5056198;28;20443;-73
2024/02/23 06:28:37;;;;;;;12.13;6.70;;;;;;;3.17;85.36;98399.75;5056353;28;20935;-72
2024/02/23 06:31:04;;;;;;;16.80;8.77;;;;;;;3.19;85.63;98397.16;5056263;28;20440;-73
2024/02/23 06:33:34;;;;;;;15.97;8.87;;;;;;;3.19;85.41;98400.56;5056190;28;20446;-73
2024/02/23 06:36:02;;;;;;;11.93;6.37;;;;;;;3.20;85.43;98398.81;5056024;28;20529;-73
2024/02/23 06:38:30;;;;;;;13.87;7.97;;;;;;;3.20;85.59;98396.25;5055995;28;20997;-73
2024/02/23 06:40:57;;;;;;;16.27;10.13;;;;;;;3.18;85.71;98391.09;5056045;28;20443;-73
2024/02/23 06:43:24;;;;;;;15.40;7.07;;;;;;;3.20;85.51;98389.34;5055935;28;20437;-73
2024/02/23 06:45:51;;;;;;;15.20;9.67;;;;;;;3.21;85.74;98401.38;5055924;28;20823;-73
2024/02/23 06:48:18;;;;;;;19.40;10.13;;;;;;;3.22;85.67;98387.56;5056025;28;20441;-73
2024/02/23 06:50:45;;;;;;;9.50;5.50;;;;;;;3.23;85.71;98384.06;5055813;28;20941;-70
2024/02/23 06:53:12;;;;;;;24.10;13.70;;;;;;;3.23;85.55;98378.91;5055738;28;20790;-70
2024/02/23 06:55:40;;;;;;;17.47;9.53;;;;;;;3.23;85.65;98378.91;5055444;28;20970;-70
2024/02/23 06:58:07;;;;;;;18.67;9.27;;;;;;;3.23;85.38;98378.91;5055398;28;21031;-70
2024/02/23 07:00:34;;;;;;;24.03;14.47;;;;;;;3.25;85.59;98381.44;5055570;28;20937;-70
2024/02/23 07:03:03;;;;;;;24.90;14.33;;;;;;;3.26;85.29;98372.78;5055741;28;20425;-70
2024/02/23 07:05:30;;;;;;;20.43;11.30;;;;;;;3.26;85.52;98372.78;5055405;28;20448;-70
2024/02/23 07:07:57;;;;;;;16.40;8.90;;;;;;;3.25;85.24;98353.88;5055310;28;20445;-70
2024/02/23 07:10:25;;;;;;;15.07;7.20;;;;;;;3.26;85.25;98352.97;5055371;28;20440;-71
2024/02/23 07:12:55;;;;;;;16.37;8.53;;;;;;;3.26;85.45;98347.78;5055368;28;20452;-70
2024/02/23 07:15:22;;;;;;;25.53;13.73;;;;;;;3.27;85.33;98344.34;5055351;28;20434;-70
2024/02/23 07:17:49;;;;;;;11.50;5.60;;;;;;;3.27;85.35;98343.50;5054709;28;20547;-71
2024/02/23 07:20:16;;;;;;;9.40;5.93;;;;;;;3.25;85.18;98329.78;5055000;28;20965;-70
2024/02/23 07:22:45;;;;;;;16.13;7.93;;;;;;;3.28;85.55;98329.66;5055021;28;20449;-70
2024/02/23 07:25:12;;;;;;;17.10;10.43;;;;;;;3.29;85.36;98323.59;5055186;28;20430;-70
2024/02/23 07:27:39;;;;;;;10.50;5.90;;;;;;;3.27;85.50;98328.81;5055027;28;20435;-70
2024/02/23 07:30:09;;;;;;;13.90;8.63;;;;;;;3.29;85.29;98336.50;5055138;28;20436;-74
2024/02/23 07:32:36;;;;;;;10.03;7.03;;;;;;;3.30;85.65;98340.81;5054938;28;20781;-76
2024/02/23 07:35:03;;;;;;;11.43;7.70;;;;;;;3.32;85.59;98335.56;5054735;28;20770;-75
2024/02/23 07:37:30;;;;;;;11.17;7.07;;;;;;;3.32;85.50;98330.41;5054777;28;20444;-75
2024/02/23 07:39:57;;;;;;;13.50;7.97;;;;;;;3.33;85.18;98337.28;5054700;28;20986;-75
2024/02/23 07:42:24;;;;;;;7.47;4.97;;;;;;;3.34;85.32;98333.78;5054671;28;20451;-72
2024/02/23 07:44:51;;;;;;;13.27;8.10;;;;;;;3.35;85.46;98319.97;5054739;28;20434;-72
2024/02/23 07:47:19;;;;;;;11.27;7.83;;;;;;;3.36;85.40;98316.50;5054731;28;20460;-72
2024/02/23 07:49:46;;;;;;;7.67;4.67;;;;;;;3.36;85.30;98322.50;5054565;28;20491;-72
2024/02/23 07:52:13;;;;;;;10.97;6.00;;;;;;;3.37;85.40;98323.34;5054699;28;20452;-72
2024/02/23 07:54:40;;;;;;;3.50;1.90;;;;;;;3.39;85.33;98319.00;5054507;28;20461;-72
2024/02/23 07:57:07;;;;;;;10.87;7.03;;;;;;;3.38;85.34;98325.88;5054597;28;20455;-73
2024/02/23 07:59:34;;;;;;;14.53;8.40;;;;;;;3.40;85.00;98318.09;5054596;28;20477;-72
2024/02/23 08:02:00;;;;;;;11.97;7.60;;;;;;;3.39;85.22;98306.06;5054378;28;20426;-72
2024/02/23 08:04:29;;;;;;;13.40;8.33;;;;;;;3.41;85.52;98304.25;5054461;28;20797;-71
2024/02/23 08:06:55;;;;;;;12.20;7.73;;;;;;;3.42;85.29;98301.63;5054244;28;20437;-72
2024/02/23 08:09:23;;;;;;;11.83;7.80;;;;;;;3.42;85.40;98311.97;5054247;28;20437;-72
2024/02/23 08:11:51;;;;;;;11.17;7.13;;;;;;;3.44;85.45;98315.34;5054290;28;20444;-74
2024/02/23 08:14:18;;;;;;;12.47;7.27;;;;;;;3.45;85.37;98311.03;5054185;28;20434;-72
2024/02/23 08:16:45;;;;;;;12.80;7.37;;;;;;;3.48;85.56;98316.09;5054111;28;20941;-73
2024/02/23 08:19:11;;;;;;;5.53;4.33;;;;;;;3.49;85.49;98307.44;5054100;28;21017;-72
2024/02/23 08:21:41;;;;;;;14.57;9.17;;;;;;;3.49;85.41;98315.19;5054022;28;20452;-72
2024/02/23 08:24:08;;;;;;;13.90;8.77;;;;;;;3.52;85.62;98322.84;5054340;28;20475;-72
2024/02/23 08:26:35;;;;;;;13.73;8.53;;;;;;;3.53;85.49;98328.88;5054026;28;20442;-72
2024/02/23 08:29:02;;;;;;;17.97;8.80;;;;;;;3.56;85.55;98345.13;5054332;28;20438;-72
2024/02/23 08:31:29;;;;;;;14.17;8.53;;;;;;;3.57;85.66;98333.88;5052678;28;20949;-72
2024/02/23 08:33:56;;;;;;;11.63;7.27;;;;;;;3.59;85.58;98347.59;5053843;28;20442;-72
2024/02/23 08:36:23;;;;;;;10.10;6.47;;;;;;;3.61;85.48;98351.00;5053553;28;20459;-72
2024/02/23 08:38:51;;;;;;;12.47;6.20;;;;;;;3.64;85.72;98342.25;5053626;28;20481;-72
2024/02/23 08:41:18;;;;;;;12.30;6.83;;;;;;;3.66;85.73;98348.25;5053427;28;20445;-77
2024/02/23 08:43:45;;;;;;;11.97;6.50;;;;;;;3.67;85.64;98350.78;5053498;28;20860;-77
2024/02/23 08:46:12;;;;;;;8.03;5.60;;;;;;;3.69;85.66;98338.63;5053493;28;20499;-77
2024/02/23 08:48:39;;;;;;;9.53;5.57;;;;;;;3.71;85.63;98349.78;5053347;28;20430;-77
2024/02/23 08:51:06;;;;;;;13.30;7.20;;;;;;;3.74;85.67;98349.66;5053699;28;20440;-76
2024/02/23 08:53:33;;;;;;;1.77;1.30;;;;;;;3.78;85.81;98352.16;5053392;28;20444;-75
2024/02/23 08:56:01;;;;;;;6.90;4.03;;;;;;;3.77;85.78;98329.78;5053415;28;20482;-76
2024/02/23 08:58:28;;;;;;;8.20;6.00;;;;;;;3.81;85.76;98344.28;5053323;28;20941;-77
2024/02/23 09:00:55;;;;;;;10.53;6.23;;;;;;;3.84;86.04;98344.19;5053291;28;20448;-77
2024/02/23 09:03:22;;;;;;;7.17;5.03;;;;;;;3.85;86.06;98351.06;5053291;28;20498;-77
2024/02/23 09:05:49;;;;;;;5.17;3.80;;;;;;;3.87;85.83;98341.50;5053150;28;20949;-77
2024/02/23 09:08:16;;;;;;;10.77;5.47;;;;;;;3.88;86.02;98338.84;5053140;28;20437;-76
2024/02/23 09:10:43;;;;;;;7.37;4.57;;;;;;;3.90;86.18;98344.00;5053497;28;20449;-81
2024/02/23 09:13:12;;;;;;;5.93;3.03;;;;;;;3.92;85.79;98329.25;5053960;28;20436;-82
2024/02/23 09:15:39;;;;;;;4.20;2.83;;;;;;;3.95;85.77;98342.94;5054117;28;20479;-81
2024/02/23 09:18:06;;;;;;;9.23;4.93;;;;;;;3.97;86.08;98358.38;5054169;28;20438;-83
2024/02/23 09:20:33;;;;;;;5.40;4.70;;;;;;;3.99;86.16;98364.38;5053964;28;20491;-85
2024/02/23 09:23:00;;;;;;;8.20;4.77;;;;;;;4.01;85.97;98385.88;5054090;28;20440;-84
2024/02/23 09:25:27;;;;;;;8.57;5.43;;;;;;;4.04;85.79;98374.53;5054136;28;20948;-84
2024/02/23 09:27:58;;;;;;;10.30;5.67;;;;;;;4.05;86.18;98371.91;5054050;28;20528;-84
2024/02/23 09:30:26;;;;;;;9.53;6.13;;;;;;;4.08;86.17;98374.38;5054204;28;20791;-83
2024/02/23 09:32:53;;;;;;;8.93;5.37;;;;;;;4.08;85.87;98384.75;5053848;28;20439;-84
2024/02/23 09:35:21;;;;;;;6.77;4.80;;;;;;;4.05;85.84;98384.84;5054455;28;20446;-85
2024/02/23 09:37:47;;;;;;;9.23;5.90;;;;;;;4.13;85.85;98403.53;5054311;28;20448;-84
2024/02/23 09:40:16;;;;;;;7.73;5.23;;;;;;;4.16;85.93;98400.00;5053936;28;20495;-88
2024/02/23 09:42:43;;;;;;;7.37;5.20;;;;;;;4.18;85.78;98398.22;5038931;28;20444;-84
2024/02/23 09:45:13;;;;;;;8.67;5.97;;;;;;;4.19;86.12;98408.50;5033892;28;20450;-84
2024/02/23 09:47:41;;;;;;;6.83;5.50;;;;;;;4.21;85.82;98408.47;5033840;28;20494;-86
2024/02/23 09:50:10;;;;;;;12.17;5.67;;;;;;;4.24;85.99;98420.47;5034071;28;20446;-85
2024/02/23 09:52:37;;;;;;;9.20;5.63;;;;;;;4.27;86.18;98428.13;5034095;28;20441;-84
2024/02/23 09:55:04;;;;;;;8.20;5.10;;;;;;;4.28;86.26;98429.78;5033624;28;20498;-81
2024/02/23 09:57:31;;;;;;;7.83;5.07;;;;;;;4.29;86.14;98419.38;5033914;28;20440;-84
2024/02/23 09:59:58;;;;;;;6.80;5.07;;;;;;;4.34;86.20;98432.16;5032999;28;20486;-79
2024/02/23 10:02:26;;;;;;;8.10;5.17;;;;;;;4.36;86.10;98445.91;5032963;28;20813;-79
2024/02/23 10:04:57;;;;;;;8.33;4.63;;;;;;;4.39;85.98;98457.00;5032662;28;20940;-80
2024/02/23 10:07:26;;;;;;;6.00;4.80;;;;;;;4.41;86.31;98455.22;5032761;28;20439;-79
2024/02/23 10:09:55;;;;;;;6.50;5.03;;;;;;;4.44;86.04;98463.78;5032608;28;20453;-79
2024/02/23 10:12:22;;;;;;;7.57;5.50;;;;;;;4.47;86.10;98464.50;5032746;28;20532;-80
2024/02/23 10:14:49;;;;;;;8.43;5.47;;;;;;;4.50;86.14;98474.75;5032658;28;20518;-79
2024/02/23 10:17:15;;;;;;;7.20;4.97;;;;;;;4.52;85.85;98498.00;5032599;28;20438;-79
2024/02/23 10:19:42;;;;;;;7.47;4.90;;;;;;;4.55;86.26;98498.75;5032600;28;20991;-77
2024/02/23 10:22:11;;;;;;;8.60;5.80;;;;;;;4.61;86.82;98505.47;5032110;28;20936;-78
2024/02/23 10:24:38;;;;;;;9.97;5.33;;;;;;;4.64;86.29;98516.56;5032404;28;20196;-77
2024/02/23 10:27:06;;;;;;;7.73;4.50;;;;;;;4.69;86.29;98502.59;5032444;28;20449;-77
2024/02/23 10:29:33;;;;;;;9.80;4.83;;;;;;;4.69;86.29;98500.84;5032408;28;20443;-77
2024/02/23 10:32:01;;;;;;;6.47;4.33;;;;;;;4.71;85.96;98511.16;5032441;28;20196;-77
2024/02/23 10:34:30;;;;;;;7.00;3.77;;;;;;;4.76;85.93;98520.47;5032325;28;20206;-77
2024/02/23 10:36:57;;;;;;;6.17;3.17;;;;;;;4.79;85.75;98527.28;5032340;28;20196;-79
2024/02/23 10:39:30;;;;;;;5.03;3.67;;;;;;;4.76;85.68;98517.03;5032616;28;20227;-78
2024/02/23 10:41:59;;;;;;;5.87;3.33;;;;;;;4.85;85.34;98534.84;5032426;28;20198;-77
2024/02/23 10:44:27;;;;;;;4.37;3.37;;;;;;;4.86;85.64;98534.81;5032315;28;20665;-77
2024/02/23 10:46:56;;;;;;;6.57;3.60;;;;;;;4.89;85.60;98545.94;5032193;28;20649;-75
2024/02/23 10:49:26;;;;;;;6.30;3.60;;;;;;;4.91;85.56;98557.94;5032070;28;20243;-77
2024/02/23 10:51:53;;;;;;;6.53;3.10;;;;;;;4.91;85.38;98563.13;5032279;28;20200;-76
2024/02/23 10:54:21;;;;;;;8.10;3.30;;;;;;;4.97;85.44;98567.28;5034175;28;20204;-77
2024/02/23 10:56:51;;;;;;;5.70;3.07;;;;;;;4.98;85.22;98564.66;5035774;28;20204;-76
2024/02/23 10:59:19;;;;;;;4.13;3.13;;;;;;;5.01;85.04;98567.13;5035914;28;20224;-72
2024/02/23 11:01:49;;;;;;;5.43;2.70;;;;;;;5.04;84.98;98564.44;5035710;28;20192;-71
2024/02/23 11:04:17;;;;;;;5.93;2.77;;;;;;;5.06;84.65;98567.81;5035713;28;20265;-72
2024/02/23 11:06:50;;;;;;;4.00;1.93;;;;;;;5.10;84.66;98567.72;5035579;28;20278;-72
2024/02/23 11:09:17;;;;;;;3.67;2.27;;;;;;;5.10;84.10;98578.91;5035500;28;20206;-71
2024/02/23 11:11:54;;;;;;;7.97;2.50;;;;;;;5.14;84.32;98579.66;5035523;28;20199;-72
2024/02/23 11:14:31;;;;;;;5.67;1.93;;;;;;;5.16;83.88;98593.41;5035467;28;20200;-71
2024/02/23 11:16:59;;;;;;;2.33;1.60;;;;;;;5.17;83.69;98587.31;5035396;28;20196;-71
2024/02/23 11:19:34;;;;;;;3.40;2.00;;;;;;;5.19;83.88;98588.94;5035404;28;20230;-72
2024/02/23 11:22:02;;;;;;;4.03;1.67;;;;;;;5.19;83.42;98573.41;5035210;28;20196;-69
2024/02/23 11:24:30;;;;;;;2.20;1.40;;;;;;;5.21;83.16;98583.72;5035523;28;20283;-70
2024/02/23 11:27:08;;;;;;;2.20;1.33;;;;;;;5.23;83.28;98590.53;5035146;28;20191;-70
2024/02/23 11:29:36;;;;;;;2.83;1.50;;;;;;;5.24;83.09;98592.22;5035328;28;20258;-77
2024/02/23 11:32:03;;;;;;;3.47;1.17;;;;;;;5.27;82.87;98604.25;5034966;28;20666;-77
2024/02/23 11:34:31;;;;;;;1.97;1.10;;;;;;;5.26;83.20;98597.34;5035315;28;20192;-77